EDT,Max TemperatureF,Mean TemperatureF,Min TemperatureF,Max Dew PointF,MeanDew PointF,Min DewpointF,Max Humidity, Mean Humidity, Min Humidity, Max Sea Level PressureIn, Mean Sea Level PressureIn, Min Sea Level PressureIn, Max VisibilityMiles, Mean VisibilityMiles, Min VisibilityMiles, Max Wind SpeedMPH, Mean Wind SpeedMPH, Max Gust SpeedMPH,PrecipitationIn, CloudCover, Events, WindDirDegrees
2013-7-1,79,74,69,72,70,68,94,90,78,30.12,30.03,29.97,10,6,1,12,8,20,0.09,8,Rain,209
2013-7-2,82,76,71,72,70,69,94,83,69,30.21,30.16,30.11,10,9,5,16,10,22,0.01,6,Rain,216
2013-7-3,88,80,71,72,70,68,91,77,59,30.23,30.20,30.17,10,10,9,18,10,28,0.00,2,,223
2013-7-4,91,82,73,74,71,70,93,77,55,30.22,30.18,30.12,10,10,6,15,9,23,0.00,2,,232
2013-7-5,93,82,73,74,71,69,87,71,48,30.18,30.13,30.07,10,10,7,18,8,23,0.00,0,,234
2013-7-6,93,82,73,73,70,69,90,68,47,30.09,30.04,29.98,10,10,10,13,6,20,0.00,1,,259
2013-7-7,93,81,69,77,71,68,94,77,49,30.03,29.98,29.92,10,9,1,12,3,16,0.09,1,Rain-Thunderstorm,237
2013-7-8,90,77,66,72,68,64,94,83,57,30.06,29.99,29.93,10,5,0,13,5,,0.00,4,Fog,39
2013-7-9,73,70,66,66,65,64,94,88,78,30.11,30.08,30.05,10,6,0,8,4,,0.00,8,Fog,38
2013-7-10,84,76,69,73,71,66,94,84,65,30.07,29.95,29.83,10,7,1,15,6,23,0.01,7,,180
2013-7-11,78,74,71,72,70,66,94,87,76,29.91,29.85,29.81,10,7,0,23,6,36,0.68,5,Fog-Rain-Thunderstorm,210
2013-7-12,73,69,66,70,64,59,94,84,71,30.19,30.06,29.91,10,6,0,17,8,23,0.00,7,Fog,39
2013-7-13,79,71,64,70,67,63,96,90,76,30.31,30.28,30.19,10,4,0,10,5,,0.45,8,Fog-Rain,65
2013-7-14,90,79,71,74,72,69,97,87,55,30.31,30.27,30.20,10,6,0,9,2,,0.01,7,Fog-Thunderstorm,231
2013-7-15,89,80,70,73,70,67,93,72,49,30.20,30.16,30.11,10,10,6,12,2,,0.00,1,,34
2013-7-16,89,80,70,71,67,65,91,68,49,30.17,30.13,30.10,10,10,6,10,3,,0.00,1,,38
2013-7-17,91,79,68,71,67,64,90,68,49,30.19,30.12,30.04,10,9,4,8,2,17,0.00,0,,208
2013-7-18,90,82,75,73,70,67,84,70,57,30.03,29.99,29.97,10,10,6,12,6,18,0.00,0,,180
2013-7-19,97,86,75,76,74,72,94,74,46,29.95,29.86,29.76,10,7,2,20,7,30,0.00,0,,220
2013-7-20,95,78,72,74,73,69,94,85,72,29.80,29.77,29.73,9,6,2,10,6,,0.07,2,Rain-Thunderstorm,214
2013-7-21,84,76,70,69,66,62,91,75,58,30.00,29.93,29.82,10,10,9,9,2,,0.01,3,,84
2013-7-22,81,74,66,68,67,64,94,80,62,30.01,29.95,29.90,10,8,0,10,4,16,0.00,3,Fog,89
2013-7-23,84,76,69,74,71,68,100,87,66,29.89,29.69,29.56,10,6,0,18,5,28,0.36,6,Fog-Rain-Thunderstorm,181
2013-7-24,88,80,72,72,67,57,94,68,51,29.92,29.72,29.59,10,9,5,13,4,20,0.00,5,,313
2013-7-25,69,66,62,59,56,53,87,77,63,30.07,30.04,29.94,10,10,10,16,13,28,0.02,8,Rain,30
2013-7-26,68,65,62,65,63,59,94,92,87,30.02,29.96,29.91,10,5,1,17,11,25,0.86,8,Rain,331
2013-7-27,84,72,62,67,63,59,97,78,46,30.07,30.04,30.03,10,9,1,14,5,22,0.01,2,,228
2013-7-28,75,72,69,70,68,66,94,88,81,30.03,29.99,29.97,10,8,2,8,4,,0.19,7,Rain,70
2013-7-29,82,74,66,72,68,65,96,85,65,30.04,30.02,30.00,10,6,0,10,3,16,0.01,5,Fog,209
2013-7-30,82,73,63,67,61,57,93,70,42,30.10,30.07,30.03,10,10,9,12,5,16,0.00,1,,287
2013-7-31,80,70,59,62,59,56,90,69,46,30.14,30.10,30.07,10,10,10,8,3,,0.01,1,,67